Terminal Aerodrome Forecast
Issued by NWS

Home | Current Version | Previous Version | Text Only | Print | Product List | Glossary On
Versions: 1 2 3 4 5 6 7 8 9 10 11 12 13
000
FTUS43 KJKL 291141
TAFSJS
TAF
KSJS 291141Z 2912/3012 VRB03KT 3SM BR BKN003
     FM291300 00000KT 6SM BR BKN008
     FM291400 VRB03KT P6SM BKN015
     FM291600 VRB03KT P6SM VCTS BKN025CB
     FM291800 VRB03KT P6SM VCTS SCT035CB
     FM300300 34003KT P6SM SCT250=

USA.gov is the U.S. government's official web portal to all federal, state and local government web resources and services.